EGNR - Hawarden
Distance from station: E 5mi, 14km
Updated: 04/21/2018 10:50am
NOT Current
Few Clouds
Few Clouds
 Wind from SSE
Wind: SSE 17 mph , 28 km/h
Temperature: 70°F , 21°C
Dew Point: 57°F , 14°C
Humidity: 64%
Barometer: 29.91 inHg , 1013 hPa
Clouds: Few Clouds
Visibility: 6 miles , 10 km
Cloud details: Few Clouds 4800 ft
2018/04/21 17:50 EGNR 211750Z 15015KT 9999 FEW048 21/14 Q1013